Time;durP1;ratioP1;P1;durP2;ratioP2;P2;SDS_P1;SDS_P2;PMS_P1;PMS_P2;Temp;Humidity;BMP_temperature;BMP_pressure;BME280_temperature;BME280_humidity;BME280_pressure;Samples;Min_cycle;Max_cycle;Signal;HPM_P1;HPM_P2
2022/03/10 00:03:51;;;;;;;118.05;38.45;;;;;;;0.30;73.62;100436.63;8396175;28;20153;-70
2022/03/10 00:07:52;;;;;;;118.97;37.42;;;;;;;0.31;74.57;100448.88;8392465;28;20052;-71
2022/03/10 00:11:53;;;;;;;99.88;35.20;;;;;;;0.32;74.81;100445.19;8403615;28;20127;-70
2022/03/10 00:15:54;;;;;;;124.10;39.65;;;;;;;0.37;75.19;100448.03;8475492;27;20062;-71
2022/03/10 00:19:55;;;;;;;133.13;40.80;;;;;;;0.36;75.23;100443.75;8489492;27;20396;-71
2022/03/10 00:23:56;;;;;;;114.57;37.10;;;;;;;0.39;76.23;100451.31;8475156;27;20051;-70
2022/03/10 00:27:57;;;;;;;109.38;36.67;;;;;;;0.39;76.00;100459.28;8473129;27;20062;-71
2022/03/10 00:31:58;;;;;;;100.97;37.00;;;;;;;0.39;76.93;100456.63;8499152;27;20047;-70
2022/03/10 00:35:59;;;;;;;96.22;33.78;;;;;;;0.39;77.30;100461.94;8499939;27;20387;-71
2022/03/10 00:40:00;;;;;;;90.63;32.10;;;;;;;0.43;78.54;100463.13;8483313;27;20047;-72
2022/03/10 00:44:01;;;;;;;103.55;34.95;;;;;;;0.45;79.47;100470.09;8486756;27;20126;-70
2022/03/10 00:48:02;;;;;;;97.85;35.80;;;;;;;0.59;81.01;100471.66;8486618;27;20154;-71
2022/03/10 00:52:04;;;;;;;90.25;34.60;;;;;;;0.67;81.03;100479.41;8471459;27;20058;-70
2022/03/10 00:56:05;;;;;;;94.65;35.08;;;;;;;0.75;81.80;100481.81;8477652;27;20054;-71
2022/03/10 01:00:06;;;;;;;104.18;36.85;;;;;;;0.83;82.13;100478.94;8475123;27;20048;-70
2022/03/10 01:04:07;;;;;;;104.90;37.38;;;;;;;0.93;81.75;100478.47;8456236;27;20047;-71
2022/03/10 01:08:08;;;;;;;116.53;38.58;;;;;;;1.00;81.92;100485.41;8491802;27;20046;-71
2022/03/10 01:12:10;;;;;;;98.35;34.97;;;;;;;1.06;81.79;100489.84;8475216;27;20101;-71
2022/03/10 01:16:11;;;;;;;110.38;37.90;;;;;;;1.09;82.17;100484.13;8487881;27;20419;-71
2022/03/10 01:20:12;;;;;;;113.13;39.17;;;;;;;1.09;82.67;100478.81;8480237;27;20399;-71
2022/03/10 01:24:13;;;;;;;102.70;38.42;;;;;;;1.11;82.97;100486.59;8484614;27;20546;-71
2022/03/10 01:28:14;;;;;;;111.80;39.25;;;;;;;1.09;83.40;100484.13;8423901;27;20039;-71
2022/03/10 01:32:15;;;;;;;107.70;39.38;;;;;;;1.06;83.58;100484.53;8465327;28;20047;-70
2022/03/10 01:36:16;;;;;;;117.32;42.92;;;;;;;1.00;84.01;100489.91;8484248;27;20050;-71
2022/03/10 01:40:18;;;;;;;118.95;40.60;;;;;;;0.94;83.98;100501.41;8498944;27;20054;-70
2022/03/10 01:44:21;;;;;;;118.35;39.95;;;;;;;0.93;85.04;100500.59;8497554;27;20043;-70
2022/03/10 01:48:22;;;;;;;111.00;37.28;;;;;;;0.94;85.13;100496.91;8480023;27;20051;-70
2022/03/10 01:52:23;;;;;;;98.95;38.08;;;;;;;0.90;86.10;100501.00;8496895;27;20047;-70
2022/03/10 01:56:25;;;;;;;102.30;38.22;;;;;;;0.81;86.74;100502.25;8489998;27;20096;-71
2022/03/10 02:00:26;;;;;;;108.05;38.15;;;;;;;0.77;86.76;100506.38;8497920;27;20067;-70
2022/03/10 02:04:27;;;;;;;99.72;37.05;;;;;;;0.73;87.43;100499.84;8478409;27;20050;-70
2022/03/10 02:12:52;;;;;;;96.53;36.58;;;;;;;0.67;89.06;100508.66;8438085;28;20101;-70
2022/03/10 02:21:14;;;;;;;96.18;36.00;;;;;;;0.56;89.38;100525.25;8495655;27;20047;-70
2022/03/10 02:25:15;;;;;;;97.15;37.47;;;;;;;0.48;89.82;100522.84;8497605;27;20047;-70
2022/03/10 02:29:16;;;;;;;100.43;36.83;;;;;;;0.42;89.57;100525.28;8490207;27;20040;-71
2022/03/10 02:33:17;;;;;;;107.15;38.55;;;;;;;0.36;90.14;100526.13;8464439;27;20048;-71
2022/03/10 02:37:20;;;;;;;96.93;37.65;;;;;;;0.33;89.90;100537.16;8466857;27;20054;-70
2022/03/10 02:41:21;;;;;;;111.25;38.45;;;;;;;0.31;90.38;100541.88;8478623;27;20067;-70
2022/03/10 02:45:22;;;;;;;100.03;37.25;;;;;;;0.29;90.83;100549.25;8470860;27;20146;-70
2022/03/10 02:49:24;;;;;;;95.88;36.97;;;;;;;0.25;90.87;100545.38;8485866;27;20088;-70
2022/03/10 02:53:25;;;;;;;89.88;33.22;;;;;;;0.23;91.65;100543.94;8494813;27;20054;-70
2022/03/10 02:57:27;;;;;;;85.47;32.10;;;;;;;0.27;91.89;100553.94;8428911;27;20047;-69
2022/03/10 03:01:29;;;;;;;84.80;32.67;;;;;;;0.23;91.82;100558.03;8456106;27;20111;-70
2022/03/10 03:05:30;;;;;;;86.93;32.05;;;;;;;0.22;92.61;100561.72;8473592;27;20044;-70
2022/03/10 03:09:30;;;;;;;81.57;32.60;;;;;;;0.21;92.87;100570.69;8482474;27;20119;-70
2022/03/10 03:13:32;;;;;;;77.22;32.88;;;;;;;0.16;92.53;100572.34;8463002;27;20109;-70
2022/03/10 03:17:32;;;;;;;80.30;32.35;;;;;;;0.08;92.92;100586.66;8462484;27;20142;-70
2022/03/10 03:21:33;;;;;;;85.07;33.20;;;;;;;0.03;92.77;100591.75;8472559;27;20478;-70
2022/03/10 03:25:34;;;;;;;83.25;33.70;;;;;;;-0.03;92.87;100595.22;8485860;27;20139;-71
2022/03/10 03:29:35;;;;;;;70.82;30.30;;;;;;;-0.11;92.69;100603.41;8476648;27;20422;-70
2022/03/10 03:33:37;;;;;;;86.82;32.70;;;;;;;-0.25;92.28;100607.03;8463580;27;20048;-70
2022/03/10 03:37:39;;;;;;;76.88;31.77;;;;;;;-0.38;92.54;100612.34;8475907;27;20465;-71
2022/03/10 03:41:40;;;;;;;73.35;30.85;;;;;;;-0.47;92.38;100615.16;8461244;28;20052;-70
2022/03/10 03:45:41;;;;;;;77.65;31.00;;;;;;;-0.53;92.56;100620.47;8476361;27;20411;-70
2022/03/10 03:49:42;;;;;;;70.00;29.30;;;;;;;-0.63;92.51;100626.13;8461333;27;20058;-70
2022/03/10 03:53:43;;;;;;;69.65;30.38;;;;;;;-0.70;92.58;100635.91;8482730;27;20471;-70
2022/03/10 03:57:44;;;;;;;78.63;32.38;;;;;;;-0.80;92.61;100635.47;8491562;27;20138;-70
2022/03/10 04:01:45;;;;;;;99.15;36.63;;;;;;;-0.88;92.43;100638.28;8441802;28;20056;-70
2022/03/10 04:05:46;;;;;;;92.97;36.13;;;;;;;-0.93;92.54;100640.69;8457950;27;20074;-70
2022/03/10 04:09:47;;;;;;;70.70;30.92;;;;;;;-0.89;93.24;100644.59;8484165;27;20510;-70
2022/03/10 04:13:48;;;;;;;70.57;30.35;;;;;;;-0.82;93.89;100645.44;8411708;28;20052;-70
2022/03/10 04:17:49;;;;;;;65.53;30.30;;;;;;;-0.81;94.07;100649.75;8480959;28;20058;-71
2022/03/10 04:21:50;;;;;;;68.72;27.77;;;;;;;-0.80;94.45;100667.31;8441368;28;20067;-69
2022/03/10 04:25:51;;;;;;;65.55;28.35;;;;;;;-0.82;94.79;100664.00;8463024;27;20040;-71
2022/03/10 04:29:52;;;;;;;57.97;26.80;;;;;;;-0.88;94.82;100659.50;8468025;28;20075;-69
2022/03/10 04:33:53;;;;;;;60.38;26.50;;;;;;;-0.91;94.85;100671.31;8472358;27;20063;-69
2022/03/10 04:37:54;;;;;;;57.28;26.70;;;;;;;-0.90;95.25;100678.25;8460515;28;20044;-70
2022/03/10 04:41:55;;;;;;;59.22;26.50;;;;;;;-0.92;94.89;100695.38;8457110;28;20044;-69
2022/03/10 04:45:57;;;;;;;51.72;23.13;;;;;;;-0.89;94.95;100689.66;8427118;28;20059;-69
2022/03/10 04:49:58;;;;;;;46.45;21.63;;;;;;;-0.87;94.34;100687.66;8432583;28;20036;-69
2022/03/10 04:53:59;;;;;;;46.70;20.30;;;;;;;-0.88;94.25;100696.63;8448818;27;20151;-69
2022/03/10 04:58:00;;;;;;;43.20;20.98;;;;;;;-0.92;93.63;100716.59;8489738;27;20051;-69
2022/03/10 05:02:01;;;;;;;50.22;20.95;;;;;;;-0.96;92.99;100716.19;8477660;27;20126;-69
2022/03/10 05:06:02;;;;;;;36.90;17.27;;;;;;;-0.90;92.08;100725.97;8463778;28;20059;-69
2022/03/10 05:10:04;;;;;;;41.50;17.52;;;;;;;-0.91;91.66;100731.50;8446857;28;20403;-69
2022/03/10 05:14:05;;;;;;;37.97;16.85;;;;;;;-0.91;91.07;100744.75;8432341;28;20055;-69
2022/03/10 05:18:05;;;;;;;34.95;16.55;;;;;;;-0.96;90.62;100741.88;8465465;27;20044;-70
2022/03/10 05:22:06;;;;;;;35.97;15.15;;;;;;;-0.91;90.06;100750.06;8432070;28;20060;-68
2022/03/10 05:26:07;;;;;;;36.25;16.45;;;;;;;-0.89;88.98;100758.63;8442916;28;20109;-69
2022/03/10 05:30:10;;;;;;;32.53;15.57;;;;;;;-0.89;88.37;100769.25;8463872;27;20559;-70
2022/03/10 05:34:11;;;;;;;38.40;17.10;;;;;;;-0.80;87.36;100768.09;8462813;28;20106;-70
2022/03/10 05:38:12;;;;;;;37.95;16.83;;;;;;;-0.81;86.90;100771.75;8446424;28;20101;-69
2022/03/10 05:42:12;;;;;;;33.90;18.25;;;;;;;-0.89;87.37;100779.84;8445965;28;20051;-70
2022/03/10 05:46:13;;;;;;;39.90;17.40;;;;;;;-0.90;87.14;100783.53;8465305;28;20499;-69
2022/03/10 05:50:14;;;;;;;42.45;18.45;;;;;;;-0.89;86.94;100793.09;8464856;28;20147;-69
2022/03/10 05:54:15;;;;;;;38.67;18.20;;;;;;;-0.92;86.96;100798.81;8465006;28;20056;-68
2022/03/10 05:58:16;;;;;;;40.08;19.08;;;;;;;-0.96;86.85;100816.13;8464919;28;20119;-68
2022/03/10 06:02:18;;;;;;;41.20;19.50;;;;;;;-1.00;86.95;100813.03;8465223;28;20490;-69
2022/03/10 06:06:18;;;;;;;70.57;25.52;;;;;;;-1.00;86.79;100820.16;8463709;28;20050;-70
2022/03/10 06:10:19;;;;;;;77.80;24.55;;;;;;;-0.97;86.79;100827.75;8461785;28;20048;-70
2022/03/10 06:14:20;;;;;;;61.90;22.50;;;;;;;-0.93;86.56;100831.63;8411909;28;20048;-70
2022/03/10 06:18:21;;;;;;;74.90;26.13;;;;;;;-0.92;86.34;100833.28;8411740;28;20052;-71
2022/03/10 06:22:24;;;;;;;62.95;25.15;;;;;;;-0.88;86.13;100837.19;8430165;28;20498;-69
2022/03/10 06:26:25;;;;;;;70.75;25.00;;;;;;;-0.82;86.28;100849.69;8430372;28;20496;-70
2022/03/10 06:30:26;;;;;;;56.15;21.60;;;;;;;-0.80;86.63;100842.38;8430587;28;20105;-69
2022/03/10 06:34:27;;;;;;;36.08;17.95;;;;;;;-0.74;86.08;100857.50;8430161;28;20082;-69
2022/03/10 06:38:29;;;;;;;41.40;17.95;;;;;;;-0.67;85.86;100863.69;8429615;28;20079;-69
2022/03/10 06:42:30;;;;;;;35.38;17.92;;;;;;;-0.62;85.58;100866.56;8429982;27;20052;-69
2022/03/10 06:46:32;;;;;;;34.58;16.00;;;;;;;-0.53;85.35;100865.41;8429581;28;20580;-69
2022/03/10 06:50:33;;;;;;;35.10;15.25;;;;;;;-0.44;84.49;100874.88;8429728;28;20052;-69
2022/03/10 06:54:34;;;;;;;29.88;12.60;;;;;;;-0.27;82.08;100885.19;8429276;28;20072;-69
2022/03/10 06:58:36;;;;;;;31.52;12.52;;;;;;;-0.25;81.04;100888.47;8429817;28;20048;-69
2022/03/10 07:02:37;;;;;;;24.92;12.32;;;;;;;-0.15;79.17;100888.94;8428922;28;20056;-71
2022/03/10 07:06:38;;;;;;;23.55;10.90;;;;;;;-0.13;78.40;100881.59;8428735;28;20041;-69
2022/03/10 07:10:39;;;;;;;26.08;9.55;;;;;;;-0.08;77.79;100884.50;8429116;28;20048;-70
2022/03/10 07:14:40;;;;;;;18.15;7.78;;;;;;;0.07;74.32;100887.84;8427459;28;20054;-70
2022/03/10 07:18:41;;;;;;;18.55;8.77;;;;;;;0.09;73.83;100885.81;8408776;28;20512;-69
2022/03/10 07:22:42;;;;;;;16.45;7.55;;;;;;;0.16;72.45;100902.59;8428241;28;20060;-70
2022/03/10 07:26:43;;;;;;;19.00;7.45;;;;;;;0.24;70.63;100910.41;8459977;27;20579;-70
2022/03/10 07:30:44;;;;;;;18.48;8.32;;;;;;;0.25;70.86;100906.72;8461007;27;20051;-69
2022/03/10 07:34:47;;;;;;;16.42;7.68;;;;;;;0.34;70.32;100915.34;8460976;27;20052;-69
2022/03/10 07:38:48;;;;;;;16.55;7.72;;;;;;;0.43;69.97;100899.03;8428240;28;20051;-69
2022/03/10 07:42:49;;;;;;;27.02;9.88;;;;;;;0.47;68.71;100922.56;8427907;28;20044;-69
2022/03/10 07:46:50;;;;;;;17.10;8.35;;;;;;;0.49;69.12;100923.16;8427731;28;20139;-69
2022/03/10 07:50:50;;;;;;;23.80;9.45;;;;;;;0.56;68.99;100930.16;8427806;28;20384;-71
2022/03/10 07:54:51;;;;;;;18.60;8.80;;;;;;;0.64;67.99;100934.47;8427876;28;20093;-70
2022/03/10 07:58:52;;;;;;;20.42;9.05;;;;;;;0.67;67.23;100926.13;8427461;28;20079;-70
2022/03/10 08:02:53;;;;;;;20.70;8.77;;;;;;;0.73;66.96;100933.28;8426548;28;20036;-70
2022/03/10 08:06:54;;;;;;;18.88;8.73;;;;;;;0.84;66.36;100938.03;8425169;28;20419;-69
2022/03/10 08:10:55;;;;;;;17.23;8.65;;;;;;;0.92;64.79;100935.19;8427260;28;20055;-70
2022/03/10 08:14:57;;;;;;;16.60;8.57;;;;;;;0.99;64.91;100936.03;8425061;28;20080;-70
2022/03/10 08:18:59;;;;;;;13.00;6.43;;;;;;;1.09;63.84;100941.75;8427261;28;20044;-69
2022/03/10 08:22:59;;;;;;;18.63;8.80;;;;;;;1.21;62.87;100945.47;8427972;28;20472;-70
2022/03/10 08:27:01;;;;;;;14.95;7.40;;;;;;;1.27;62.20;100944.63;8427049;28;20045;-69
2022/03/10 08:31:04;;;;;;;13.48;6.75;;;;;;;1.41;60.53;100934.03;8431973;28;20614;-69
2022/03/10 08:35:06;;;;;;;19.25;8.23;;;;;;;1.49;60.40;100937.28;8433509;28;20135;-69
2022/03/10 08:39:06;;;;;;;14.63;6.00;;;;;;;1.63;58.74;100951.44;8465560;27;20051;-70
2022/03/10 08:43:12;;;;;;;11.05;5.85;;;;;;;1.67;57.39;100950.00;8433706;28;20052;-70
2022/03/10 08:47:13;;;;;;;14.73;7.10;;;;;;;1.70;55.78;100954.91;8433306;28;20040;-70
2022/03/10 08:51:14;;;;;;;15.57;7.05;;;;;;;1.79;55.40;100948.34;8433671;28;20048;-70
2022/03/10 08:55:16;;;;;;;19.00;8.15;;;;;;;1.81;56.73;100948.94;8433526;28;20055;-69
2022/03/10 08:59:17;;;;;;;17.08;7.10;;;;;;;1.93;56.27;100949.16;8432995;28;20051;-69
2022/03/10 09:03:18;;;;;;;12.50;6.57;;;;;;;2.15;55.00;100947.06;8413823;28;20134;-70
2022/03/10 09:07:19;;;;;;;12.75;6.75;;;;;;;2.26;54.80;100951.75;8430540;28;20044;-69
2022/03/10 09:11:20;;;;;;;13.60;7.20;;;;;;;2.42;55.40;100948.63;8432674;28;20514;-69
2022/03/10 09:15:21;;;;;;;16.17;7.45;;;;;;;2.51;54.44;100950.84;8413546;28;20048;-69
2022/03/10 09:19:23;;;;;;;16.88;7.40;;;;;;;2.61;52.78;100945.03;8430218;28;20044;-69
2022/03/10 09:23:24;;;;;;;15.27;6.55;;;;;;;2.60;51.10;100946.06;8432499;28;20427;-69
2022/03/10 09:27:25;;;;;;;12.00;5.35;;;;;;;2.66;50.08;100955.91;8432116;28;20093;-69
2022/03/10 09:31:27;;;;;;;15.32;6.60;;;;;;;2.69;50.91;100965.34;8431784;28;20520;-70
2022/03/10 09:35:28;;;;;;;16.85;7.30;;;;;;;2.91;50.18;100962.13;8431932;28;20054;-69
2022/03/10 09:39:29;;;;;;;15.40;6.80;;;;;;;3.10;48.72;100962.25;8431781;28;20172;-69
2022/03/10 09:43:31;;;;;;;20.40;7.05;;;;;;;3.15;48.26;100965.09;8462519;27;20119;-69
2022/03/10 09:47:34;;;;;;;18.58;7.28;;;;;;;3.24;47.24;100974.47;8431446;28;20040;-69
2022/03/10 09:51:35;;;;;;;15.80;7.50;;;;;;;3.18;47.11;100964.66;8431629;28;20044;-69
2022/03/10 09:55:36;;;;;;;13.15;7.32;;;;;;;3.32;46.68;100966.22;8430030;28;20044;-69
2022/03/10 09:59:50;;;;;;;12.20;6.22;;;;;;;3.35;43.91;100971.13;8431090;28;20496;-69
2022/03/10 10:03:51;;;;;;;14.85;6.35;;;;;;;3.34;43.27;100975.63;8430901;28;20055;-70
2022/03/10 10:08:13;;;;;;;15.93;6.63;;;;;;;3.48;43.82;100968.38;8430647;28;20075;-69
2022/03/10 10:12:15;;;;;;;18.27;7.20;;;;;;;3.59;44.25;100977.53;8449293;28;20059;-70
2022/03/10 10:16:19;;;;;;;18.58;7.35;;;;;;;3.62;43.05;100977.91;8464360;27;20053;-71
2022/03/10 10:20:21;;;;;;;18.45;7.75;;;;;;;3.63;43.64;100979.56;8478434;27;20108;-70
2022/03/10 10:24:21;;;;;;;17.08;7.55;;;;;;;3.75;44.59;100977.78;8444439;28;20051;-70
2022/03/10 10:28:28;;;;;;;41.38;17.15;;;;;;;3.94;44.20;100975.16;8463671;28;20047;-70
2022/03/10 10:32:45;;;;;;;15.48;7.45;;;;;;;4.08;43.13;100987.38;8463822;28;20052;-69
2022/03/10 10:36:50;;;;;;;13.70;7.10;;;;;;;4.18;42.52;100982.34;8463743;28;20058;-71
2022/03/10 10:40:53;;;;;;;20.60;7.72;;;;;;;4.16;41.56;100979.06;8463278;28;20071;-69
2022/03/10 10:44:55;;;;;;;20.63;8.85;;;;;;;4.22;42.82;100983.56;8458959;28;20103;-69
2022/03/10 10:48:57;;;;;;;18.10;7.75;;;;;;;4.28;42.88;100977.31;8459115;28;20048;-70
2022/03/10 10:52:59;;;;;;;17.85;6.82;;;;;;;4.34;42.28;100971.06;8459062;28;20035;-70
2022/03/10 10:57:01;;;;;;;19.50;8.07;;;;;;;4.38;40.65;100977.63;8442011;28;20047;-71
2022/03/10 11:01:02;;;;;;;10.50;5.53;;;;;;;4.55;39.07;100973.28;8441780;28;20043;-71
2022/03/10 11:05:04;;;;;;;21.23;8.50;;;;;;;4.61;38.12;100980.41;8424408;28;20073;-70
2022/03/10 11:09:05;;;;;;;12.48;5.75;;;;;;;4.61;39.16;100985.78;8441413;28;20518;-70
2022/03/10 11:13:06;;;;;;;15.05;7.13;;;;;;;4.74;39.04;100973.28;8432600;28;20127;-70
2022/03/10 11:17:08;;;;;;;17.38;6.90;;;;;;;4.81;38.47;100966.00;8409518;28;20177;-71
2022/03/10 11:21:27;;;;;;;16.33;6.72;;;;;;;4.91;39.04;100966.28;8428628;28;20537;-70
2022/03/10 11:25:31;;;;;;;17.90;7.72;;;;;;;5.13;39.88;100964.72;8428599;28;20435;-70
2022/03/10 11:29:32;;;;;;;15.85;7.93;;;;;;;5.26;39.69;100959.19;8428821;28;20063;-70
2022/03/10 11:33:36;;;;;;;16.80;8.05;;;;;;;5.36;39.30;100970.16;8428477;28;20044;-70
2022/03/10 11:37:36;;;;;;;18.48;8.73;;;;;;;5.46;39.61;100970.41;8428952;28;20048;-71
2022/03/10 11:41:45;;;;;;;22.58;9.85;;;;;;;5.41;39.45;100967.59;8408851;28;20067;-69
2022/03/10 11:45:46;;;;;;;19.23;8.23;;;;;;;5.51;39.25;100957.13;8428082;28;20051;-70
2022/03/10 11:49:47;;;;;;;19.75;7.18;;;;;;;5.65;38.55;100962.28;8428279;28;20045;-71
2022/03/10 11:53:57;;;;;;;17.00;8.10;;;;;;;5.67;37.69;100960.19;8444271;27;20489;-75
2022/03/10 11:58:04;;;;;;;15.30;7.50;;;;;;;5.84;36.84;100972.69;8461265;28;20077;-69
2022/03/10 12:02:05;;;;;;;20.02;7.75;;;;;;;5.84;36.62;100961.13;8460007;28;20047;-70
2022/03/10 12:06:08;;;;;;;15.20;6.97;;;;;;;5.95;35.73;100963.03;8460697;28;20522;-70
2022/03/10 12:10:11;;;;;;;17.27;7.47;;;;;;;6.02;35.61;100969.13;8441822;28;20411;-70
2022/03/10 12:14:26;;;;;;;15.90;7.57;;;;;;;5.97;36.26;100971.69;8441995;28;20043;-70
2022/03/10 12:18:44;;;;;;;15.18;7.75;;;;;;;6.03;36.22;100960.00;8461282;28;20047;-70
2022/03/10 12:23:09;;;;;;;18.53;8.27;;;;;;;6.05;36.98;100963.28;8460784;28;20055;-70
2022/03/10 12:27:09;;;;;;;18.08;8.10;;;;;;;6.14;36.74;100967.22;8460887;28;20059;-71
2022/03/10 12:31:19;;;;;;;16.60;7.00;;;;;;;6.16;36.28;100965.13;8461152;28;20407;-71
2022/03/10 12:35:31;;;;;;;15.90;8.20;;;;;;;6.22;36.73;100964.19;8459809;28;20119;-70
2022/03/10 12:39:32;;;;;;;13.10;6.30;;;;;;;6.27;36.55;100972.38;8460877;28;20048;-69
2022/03/10 12:43:34;;;;;;;17.77;7.35;;;;;;;6.29;36.14;100964.09;8460897;28;20078;-70
2022/03/10 12:47:38;;;;;;;18.20;7.60;;;;;;;6.34;36.11;100967.66;8460439;28;20105;-69
2022/03/10 12:51:39;;;;;;;25.13;9.30;;;;;;;6.40;36.34;100967.81;8460744;28;20120;-70
2022/03/10 12:55:42;;;;;;;20.25;9.27;;;;;;;6.37;36.04;100966.41;8460858;28;20056;-70
2022/03/10 12:59:42;;;;;;;21.67;7.43;;;;;;;6.25;35.83;100969.09;8460242;28;20056;-69
2022/03/10 13:03:54;;;;;;;17.13;7.82;;;;;;;6.16;36.58;100970.50;8460482;28;20434;-69
2022/03/10 13:08:08;;;;;;;17.02;8.43;;;;;;;6.25;36.52;100969.09;8460011;28;20051;-70
2022/03/10 13:12:09;;;;;;;14.57;6.82;;;;;;;6.28;35.85;100963.25;8441577;28;20047;-69
2022/03/10 13:16:11;;;;;;;20.13;7.60;;;;;;;6.39;35.64;100958.13;8463317;28;20517;-70
2022/03/10 13:20:24;;;;;;;34.72;11.85;;;;;;;6.34;35.77;100967.66;8447953;28;20158;-70
2022/03/10 13:24:42;;;;;;;17.73;7.82;;;;;;;6.35;35.18;100953.19;8466651;28;20172;-70
2022/03/10 13:28:46;;;;;;;14.23;7.22;;;;;;;7.39;34.06;100937.75;8466022;28;20502;-70
2022/03/10 13:32:47;;;;;;;13.88;6.40;;;;;;;8.53;33.42;100946.19;8464568;28;20043;-70
2022/03/10 13:36:48;;;;;;;16.13;7.35;;;;;;;9.72;32.03;100941.47;8465963;28;20043;-71
2022/03/10 13:41:01;;;;;;;15.75;7.55;;;;;;;10.76;29.90;100939.91;8465748;28;20055;-71
2022/03/10 13:45:10;;;;;;;15.82;6.97;;;;;;;11.79;28.84;100948.75;8465151;28;20048;-70
2022/03/10 13:49:21;;;;;;;22.65;10.52;;;;;;;12.92;27.55;100946.22;8465203;28;20054;-70
2022/03/10 13:53:28;;;;;;;15.80;6.13;;;;;;;14.20;24.87;100944.13;8465383;28;20058;-71
2022/03/10 13:57:29;;;;;;;15.73;6.38;;;;;;;14.82;23.71;100939.63;8465080;28;20051;-70
2022/03/10 14:01:30;;;;;;;16.83;8.57;;;;;;;15.36;24.67;100939.94;8463730;28;20451;-71
2022/03/10 14:05:52;;;;;;;12.73;7.07;;;;;;;15.55;24.10;100924.41;8445337;28;20043;-71
2022/03/10 14:09:54;;;;;;;13.90;6.90;;;;;;;16.20;20.95;100948.88;8464590;28;20047;-70
2022/03/10 14:14:03;;;;;;;12.50;6.15;;;;;;;16.56;21.08;100939.97;8464677;28;20044;-71
2022/03/10 14:18:10;;;;;;;;;;;;;;;16.43;21.44;100931.53;8464963;28;20050;-71
2022/03/10 14:22:20;;;;;;;14.63;6.68;;;;;;;16.48;21.45;100934.16;8464015;28;19976;-71
2022/03/10 14:26:21;;;;;;;11.75;6.53;;;;;;;16.79;20.41;100933.53;8463604;28;20507;-71
2022/03/10 14:30:25;;;;;;;13.90;7.22;;;;;;;16.74;20.81;100925.47;8463893;28;20051;-70
2022/03/10 14:34:26;;;;;;;13.90;7.68;;;;;;;16.69;21.09;100933.75;8394381;28;20048;-71
2022/03/10 14:38:27;;;;;;;12.18;7.38;;;;;;;15.60;22.06;100924.31;8462485;28;20494;-70
2022/03/10 14:42:28;;;;;;;12.82;7.15;;;;;;;16.12;20.98;100927.78;8444692;28;20055;-70
2022/03/10 14:46:29;;;;;;;14.25;7.13;;;;;;;15.49;21.08;100922.81;8462420;28;20054;-71
2022/03/10 14:50:30;;;;;;;12.55;6.68;;;;;;;15.31;20.81;100920.94;8463764;28;20047;-70
2022/03/10 14:54:32;;;;;;;12.50;6.57;;;;;;;14.48;22.20;100923.47;8463333;28;20136;-71
2022/03/10 14:58:33;;;;;;;14.00;7.30;;;;;;;14.02;21.82;100932.09;8425008;28;20056;-71
2022/03/10 15:02:38;;;;;;;11.88;6.07;;;;;;;15.10;20.93;100925.09;8425117;28;20044;-70
2022/03/10 15:06:39;;;;;;;13.90;7.68;;;;;;;14.98;21.22;100927.44;8424992;28;20039;-70
2022/03/10 15:10:41;;;;;;;11.93;6.82;;;;;;;15.21;21.16;100926.56;8407813;28;20186;-70
2022/03/10 15:14:42;;;;;;;13.40;7.13;;;;;;;14.12;22.07;100931.16;8424535;28;20044;-70
2022/03/10 15:18:43;;;;;;;10.82;6.70;;;;;;;14.12;21.93;100925.72;8424545;28;20070;-70
2022/03/10 15:23:02;;;;;;;12.18;6.97;;;;;;;15.02;21.49;100928.44;8390730;28;20542;-71
2022/03/10 15:27:05;;;;;;;14.45;6.07;;;;;;;14.45;21.22;100930.28;8409637;28;20055;-70
2022/03/10 15:31:07;;;;;;;13.73;6.60;;;;;;;12.67;22.77;100938.22;8390840;28;20063;-70
2022/03/10 15:35:08;;;;;;;22.13;8.20;;;;;;;10.22;25.21;100944.78;8410748;28;20068;-70
2022/03/10 15:39:11;;;;;;;14.75;7.00;;;;;;;9.15;26.75;100935.00;8373475;28;20056;-70
2022/03/10 15:43:11;;;;;;;17.00;7.63;;;;;;;8.68;27.53;100945.53;8423728;28;20526;-71
2022/03/10 15:47:12;;;;;;;42.58;18.50;;;;;;;7.83;28.73;100938.72;8427853;28;20086;-70
2022/03/10 15:51:13;;;;;;;15.52;6.47;;;;;;;7.45;29.03;100941.34;8428286;28;20044;-71
2022/03/10 15:55:14;;;;;;;14.98;7.70;;;;;;;7.11;29.82;100951.22;8427876;28;20146;-72
2022/03/10 15:59:15;;;;;;;17.25;7.00;;;;;;;6.64;30.49;100955.94;8427578;28;20523;-72
2022/03/10 16:03:18;;;;;;;17.08;7.50;;;;;;;6.31;31.22;100951.22;8430213;28;20555;-71
2022/03/10 16:07:20;;;;;;;21.40;7.05;;;;;;;5.93;31.76;100959.75;8455630;28;20043;-72
2022/03/10 16:11:21;;;;;;;18.67;7.20;;;;;;;5.70;31.58;100965.09;8458694;28;20051;-72
2022/03/10 16:15:22;;;;;;;19.30;7.10;;;;;;;5.40;32.16;100960.59;8458487;28;20503;-72
2022/03/10 16:19:23;;;;;;;14.95;7.65;;;;;;;5.05;32.73;100967.72;8451802;28;20529;-71
2022/03/10 16:23:25;;;;;;;17.02;8.77;;;;;;;4.83;33.40;100969.25;8458746;28;20052;-71
2022/03/10 16:27:27;;;;;;;19.02;9.20;;;;;;;4.62;34.00;100987.41;8452273;28;20051;-71
2022/03/10 16:31:28;;;;;;;19.98;7.97;;;;;;;4.38;34.41;100982.97;8442896;28;20054;-71
2022/03/10 16:35:29;;;;;;;15.13;7.47;;;;;;;4.15;35.28;100988.97;8436782;28;20433;-71
2022/03/10 16:39:30;;;;;;;19.38;8.35;;;;;;;3.95;35.83;100992.84;8446335;28;20058;-71
2022/03/10 16:43:34;;;;;;;15.93;7.43;;;;;;;3.71;36.61;100995.31;8428311;28;20044;-72
2022/03/10 16:47:35;;;;;;;14.93;6.93;;;;;;;3.49;36.83;100999.38;8454402;27;20047;-71
2022/03/10 16:51:37;;;;;;;17.38;7.65;;;;;;;3.29;36.96;100994.16;8438353;27;20044;-71
2022/03/10 16:55:39;;;;;;;18.58;9.27;;;;;;;3.06;37.18;100998.41;8463009;27;20080;-71
2022/03/10 16:59:40;;;;;;;18.83;7.88;;;;;;;2.88;37.94;100999.94;8431494;28;20496;-71
2022/03/10 17:03:41;;;;;;;17.40;7.47;;;;;;;2.62;38.38;100997.38;8452921;28;20052;-71
2022/03/10 17:07:44;;;;;;;23.73;8.45;;;;;;;2.42;38.79;101001.94;8460737;28;20051;-71
2022/03/10 17:11:45;;;;;;;15.70;7.15;;;;;;;2.23;38.67;101003.63;8460300;28;20051;-72
2022/03/10 17:15:46;;;;;;;19.48;8.40;;;;;;;2.10;38.51;101009.81;8460429;28;20134;-72
2022/03/10 17:19:49;;;;;;;14.10;6.75;;;;;;;2.03;38.80;101008.97;8460749;28;20050;-71
2022/03/10 17:23:51;;;;;;;15.45;7.18;;;;;;;1.89;39.05;101017.19;8460282;28;20120;-72
2022/03/10 17:27:52;;;;;;;13.93;6.65;;;;;;;1.78;39.08;101023.97;8442747;28;20396;-71
2022/03/10 17:31:53;;;;;;;16.13;7.25;;;;;;;1.62;39.30;101021.69;8410495;28;20048;-72
2022/03/10 17:35:54;;;;;;;14.80;7.32;;;;;;;1.50;39.64;101023.31;8455909;28;20073;-71
2022/03/10 17:39:55;;;;;;;19.30;7.22;;;;;;;1.39;39.94;101021.25;8460221;28;20122;-70
2022/03/10 17:43:56;;;;;;;15.60;6.70;;;;;;;1.30;39.79;101019.78;8461250;28;20048;-71
2022/03/10 17:47:57;;;;;;;16.48;6.57;;;;;;;1.19;39.88;101022.03;8464059;28;20071;-71
2022/03/10 17:52:02;;;;;;;21.10;7.05;;;;;;;1.12;39.98;101023.84;8463802;28;20056;-71
2022/03/10 17:56:03;;;;;;;23.13;8.93;;;;;;;1.03;40.68;101033.03;8459100;28;20052;-71
2022/03/10 18:00:05;;;;;;;22.15;7.97;;;;;;;0.96;40.69;101026.84;8429870;28;20055;-71
2022/03/10 18:04:07;;;;;;;17.08;7.38;;;;;;;0.88;40.74;101028.88;8430102;28;20503;-71
2022/03/10 18:08:08;;;;;;;21.92;7.82;;;;;;;0.79;41.21;101021.06;8429390;28;20040;-71
2022/03/10 18:12:10;;;;;;;18.58;7.97;;;;;;;0.72;41.50;101027.38;8428224;28;20056;-71
2022/03/10 18:16:11;;;;;;;18.60;8.23;;;;;;;0.60;41.87;101034.25;8445181;27;20052;-71
2022/03/10 18:20:12;;;;;;;16.15;6.95;;;;;;;0.57;42.45;101037.31;8460243;28;20052;-72
2022/03/10 18:24:14;;;;;;;16.05;7.55;;;;;;;0.47;42.49;101036.88;8442599;27;20063;-72
2022/03/10 18:28:15;;;;;;;23.42;8.60;;;;;;;0.40;42.49;101036.81;8428741;28;20625;-72
2022/03/10 18:32:16;;;;;;;29.15;10.82;;;;;;;0.28;43.02;101039.19;8438685;28;20044;-71
2022/03/10 18:36:17;;;;;;;20.92;8.73;;;;;;;0.25;42.83;101044.91;8460264;28;20088;-72
2022/03/10 18:40:18;;;;;;;17.95;7.95;;;;;;;0.21;42.91;101043.63;8444654;28;20039;-72
2022/03/10 18:44:19;;;;;;;17.23;7.85;;;;;;;0.17;43.48;101045.03;8460988;28;20047;-71
2022/03/10 18:48:23;;;;;;;20.45;8.23;;;;;;;0.15;43.43;101044.44;8493258;27;20051;-71